Hillsgrove, Pennsylvania
Current Conditions -  °F | °C
As of 8:54 PM on Wednesday 22 Oct 2014 (Local Time) from KIPT Reporting Station
Overcast Overcast  
Wind Chill: 50°   Ceiling: 1900
Heat Index: 50°   Visibility: 10mi
Dew Point: 42°   Wind: 13mph
Humidity: 74%   Direction: 310°NW
Pressure: 30.03"   Gusts: NA
Location:  41.44°N, 76.71°W
Report Text: KIPT 230054Z 31011KT 10SM OVC019 10/06 A3003 RMK AO2 SLP169 T01000056
Loading
Personal Weather Stations






























Interactive Weather Map
Tropical Storm Tracking
New forecast layout! Learn more

10-Day Weather Forecast

Advertisements
Track Severe Weather on mobile